x

South Brooks (46132) Wave Buoy

7:00 - Mon 22nd May 2017 All times are PDT. -7 hours from GMT.

  • Sig Wave height 6.2ft
  • Peak Period 11s
  • Wind
    18mph, 22mph gusts
  • Sea Temp 54°f
  • Luft Temp 55°f
  • Sea Pressure 1023.1mb
  • South Brooks
  • South Brooks

More Historic Weather Station data

Upgrade to MSW Pro to gain access to the past 30 days of data for over 8000 Wavebouys and Weather Stations around the globe.

Join Pro

Comparision Forecast

View Surf forecast
   
Mo 05/22 7:00 6ft 11s 18 22 mph 1023.1mb 54f 55f
6:00 6ft 10s 16 20 mph 1023.1mb 54f 54f
5:00 6ft 10s 18 20 mph 1023.5mb 54f 54f
4:00 5.5ft 10s 20 25 mph 1024.1mb 54f 54f
3:00 6ft 10s 18 22 mph 1024mb 54f 54f
2:00 6ft 10s 16 18 mph 1023.9mb 54f 55f
1:00 5ft 9s 16 20 mph 1023.9mb 54f 55f
12:00 5.5ft 10s 18 20 mph 1024.2mb 54f 55f
So 05/21 11:00 5ft 9s 18 20 mph 1024.3mb 54f 54f
10:00 4.5ft 8s 18 22 mph 1024.5mb 54f 55f
9:00 4.5ft 10s 18 22 mph 1024.5mb 54f 54f
8:00 4.5ft 10s 18 22 mph 1024.6mb 54f 55f
7:00 4.5ft 10s 16 20 mph 1024.8mb 54f 54f
6:00 3.5ft 9s 16 20 mph 1025.1mb 54f 54f
5:00 3.5ft 11s 13 16 mph 1025.8mb 54f 54f
4:00 3ft 9s 13 16 mph 1026.2mb 54f 54f
3:00 3ft 11s 13 16 mph 1026.5mb 54f 54f
2:00 2.5ft 10s 13 18 mph 1026.8mb 54f 52f
1:00 2.5ft 10s 11 13 mph 1026.7mb 54f 51f
12:00 2.5ft 10s 11 13 mph 1026.7mb 54f 51f
11:00 3ft 10s 11 13 mph 1026.4mb 54f 51f
10:00 3ft 15s 11 13 mph 1026.1mb 54f 51f
9:00 3ft 10s 11 16 mph 1025.9mb 54f 51f
8:00 2.5ft 8s 9 13 mph 1025.7mb 54f 51f
7:00 3ft 7s 9 11 mph 1025.4mb 53f 51f
6:00 3ft 10s 13 16 mph 1025.6mb 53f 50f
5:00 3.5ft 10s 9 13 mph 1025.3mb 53f 50f
4:00 3.5ft 10s 11 13 mph 1025.4mb 54f 50f
3:00 3.5ft 8s 11 13 mph 1025.4mb 53f 50f
2:00 3.5ft 8s 11 13 mph 1025.3mb 54f 50f
1:00 3.5ft 10s 13 16 mph 1025mb 54f 50f
12:00 3.5ft 10s 13 18 mph 1025.2mb 54f 50f
Sa 05/20 11:00 3.5ft 10s 13 18 mph 1025.2mb 54f 50f
10:00 4ft 11s 13 18 mph 1025.1mb 53f 50f
9:00 4ft 11s 16 18 mph 1024.7mb 54f 50f
8:00 4ft 8s 16 18 mph 1024.7mb 54f 50f
7:00 4.5ft 10s 16 20 mph 1024.7mb 54f 50f
6:00 4.5ft 8s 16 20 mph 1025mb 54f 50f
5:00 4.5ft 8s 16 20 mph 1025.1mb 54f 51f
4:00 4.5ft 10s 18 22 mph 1025.1mb 54f 51f
3:00 4.5ft 11s 13 18 mph 1025.2mb 54f 51f
2:00 4.5ft 11s 13 18 mph 1025.2mb 54f 52f
1:00 4.5ft 10s 11 13 mph 1024.9mb 54f 53f
12:00 4.5ft 9s 13 18 mph 1024.7mb 54f 53f
11:00 4.5ft 10s 13 18 mph 1024.3mb 54f 53f
10:00 4.5ft 10s 11 13 mph 1023.6mb 54f 53f
9:00 4.5ft 11s 11 11 mph 1023.3mb 53f 53f
8:00 4.5ft 8s 11 13 mph 1023mb 53f 53f
7:00 4.5ft 12s 11 13 mph 1022.8mb 53f 53f
6:00 4.5ft 10s 13 13 mph 1022.5mb 53f 53f
5:00 4.5ft 9s 13 16 mph 1022.3mb 52f 53f
4:00 4.5ft 12s 13 13 mph 1021.9mb 52f 53f
3:00 4.5ft 12s 13 13 mph 1021.8mb 52f 53f
2:00 4.5ft 12s 13 16 mph 1022.2mb 53f 52f
1:00 4ft 12s 11 13 mph 1022.2mb 53f 52f
12:00 4ft 12s 9 11 mph 1021.6mb 52f 52f
Fr 05/19 11:00 3.5ft 9s 4 7 mph 1021.5mb 52f 53f
10:00 3.5ft 8s 4 4 mph 1021.7mb 53f 53f
9:00 4ft 8s 4 4 mph 1021.4mb 53f 52f
8:00 3.5ft 10s 4 4 mph 1021.2mb 53f 52f
7:00 3.5ft 12s 2 4 mph 1021.3mb 54f 53f
6:00 3.5ft 12s  -  2 mph 1021.4mb 53f 54f
5:00 3.5ft 9s 2 2 mph 1021.7mb 53f 53f
4:00 3.5ft 9s 4 4 mph 1021.5mb 53f 53f
3:00 3.5ft 8s 4 4 mph 1021.7mb 53f 52f
2:00 3.5ft 8s 4 7 mph 1021.6mb 53f 53f
1:00 3.5ft 8s 7 7 mph 1021.5mb 53f 53f
12:00 3.5ft 8s 4 7 mph 1021.2mb 53f 53f
11:00 3.5ft 8s 4 7 mph 1021.1mb 52f 53f
10:00 4ft 8s 4 7 mph 1021mb 52f 53f
9:00 3.5ft 8s 7 7 mph 1020.6mb 52f 52f
8:00 3.5ft 9s 7 9 mph 1020.4mb 52f 52f
7:00 3.5ft 6s 7 9 mph 1020.2mb 52f 52f
6:00 3.5ft 9s 7 7 mph 1020.2mb 52f 52f
5:00 3.5ft 9s 7 7 mph 1020.1mb 52f 52f
4:00 3.5ft 9s 7 7 mph 1020.2mb 52f 52f
3:00 3.5ft 10s 7 9 mph 1020.2mb 52f 52f
2:00 4ft 6s 9 9 mph 1020.4mb 52f 52f
1:00 4ft 6s 9 9 mph 1020.7mb 52f 52f
12:00 4ft 6s 9 11 mph 1020.7mb 52f 52f
Do 05/18 11:00 4ft 6s 9 11 mph 1020.7mb 52f 52f
10:00 4.5ft 7s 9 11 mph 1020.7mb 52f 52f
9:00 4.5ft 6s 11 13 mph 1020.4mb 52f 52f
8:00 4.5ft 6s 11 13 mph 1020.4mb 52f 52f
7:00 4.5ft 6s 13 13 mph 1020.3mb 52f 52f
6:00 4ft 6s 13 16 mph 1020.5mb 52f 52f
5:00 4ft 5s 16 18 mph 1020.8mb 52f 52f
4:00 4ft 9s 13 18 mph 1021mb 52f 52f